Brighton, Iowa
Current Conditions -  °F | °C
As of 3:55 AM on Sunday 23 Nov 2014 (Local Time) from KAWG Reporting Station
Haze Haze  
Wind Chill: 52°   Ceiling: 400
Heat Index: 52°   Visibility: 2.5mi
Dew Point: 52°   Wind: 8mph
Humidity: 100%   Direction: 180°S
Pressure: 29.65"   Gusts: 14mph
Location:  41.17°N, 91.82°W
Report Text: KAWG 230955Z AUTO 18007G12KT 2 1/2SM BR OVC004 11/11 A2965 RMK AO2
Loading
Personal Weather Stations






























Interactive Weather Map New forecast layout! Learn more

10-Day Weather Forecast

Advertisements
Track Severe Weather on mobile